Crafers weather station

 Latitude S 34° 59' 22"    Longitude E 138° 43' 40"    Elevation 500 m

The forecast and data used is specifically for Crafers only so these values only apply to this specific area and may differ from the rest of the Mt Lofty Ranges region. The summary bar hi-lights today's prediction rather than yesterdays value. This has not been applied to other CumulusUtils FWI sites.
Legend:
Low-Mod (0-210)
Severe (490 - 630)

High (210 - 350)
Extreme (630 - 800)

Very High (350 - 490)
Catastrophic (800+)


 
159.63
Date Temp. (°C) Wind Speed (km/h) Rain (mm) RH Days Since Rain pwsFWI
Prediction is active (including today!), values are above red line.
08/10/22 12.00 14.00 0.30 0.53 0 53.02
07/10/22 13.00 29.00 7.50 0.65 0 105.34
06/10/22 18.00 20.00 0.80 0.58 0 132.04
05/10/22 18.00 30.00 2.50 0.83 0 129.21
04/10/22 16.00 33.00 26.00 0.54 0 159.63
03/10/22 22.30 13.30 8.60 0.33 0 166.46
02/10/22 26.80 11.20 0.00 0.23 4 154.51
01/10/22 24.20 9.70 0.00 0.37 3 92.87
30/09/22 19.40 8.60 0.00 0.45 2 55.05
29/09/22 16.30 12.20 0.00 0.50 1 64.29
28/09/22 14.30 8.60 0.10 0.67 0 62.34
27/09/22 12.00 12.20 4.70 0.81 0 72.44
26/09/22 14.30 12.20 3.80 0.63 0 76.54
25/09/22 18.80 7.20 2.50 0.50 0 76.99
24/09/22 18.70 12.20 0.00 0.40 1 96.68
23/09/22 16.90 14.80 0.20 0.62 0 64.18
22/09/22 22.00 6.10 0.10 0.50 0 42.57
21/09/22 14.20 11.20 1.90 0.76 0 30.83
20/09/22 21.30 13.30 9.10 0.36 0 40.83
19/09/22 19.60 9.70 0.10 0.40 0 26.49
18/09/22 12.00 18.40 3.30 0.64 0 37.41
17/09/22 10.80 13.30 5.80 0.80 0 42.72
16/09/22 10.10 15.80 16.70 0.80 0 49.42
15/09/22 19.30 15.80 14.20 0.34 0 78.03
14/09/22 14.60 11.20 7.30 0.60 0 51.77
13/09/22 21.70 9.70 0.20 0.44 0 62.51
12/09/22 15.00 8.60 0.10 0.58 0 18.69
11/09/22 12.60 6.10 0.70 0.64 0 36.57
10/09/22 16.40 8.60 0.00 0.51 1 65.28
09/09/22 10.30 17.30 7.20 0.92 0 66.79
08/09/22 15.30 11.20 26.30 0.71 0 83.31
07/09/22 17.20 13.30 11.40 0.46 0 100.84
06/09/22 21.40 8.60 0.00 0.31 3 94.46
05/09/22 16.10 9.70 0.00 0.48 2 76.19
04/09/22 13.90 11.20 0.00 0.52 1 65.50
03/09/22 13.00 13.30 0.60 0.65 0 38.72
02/09/22 10.70 12.20 0.10 0.62 0 69.38
01/09/22 14.70 15.80 2.40 0.57 0 89.18
31/08/22 15.80 7.20 0.10 0.50 0 98.68
30/08/22 10.30 9.70 0.30 0.64 0 101.81
29/08/22 13.20 13.30 17.60 0.72 0 96.83
28/08/22 23.00 11.20 0.00 0.29 3 112.50
27/08/22 17.60 8.60 0.00 0.41 2 50.50
26/08/22 18.50 8.60 0.00 0.43 1 40.43
25/08/22 14.20 6.10 0.10 0.63 0 34.33
24/08/22 12.10 9.70 1.20 0.55 0 17.45
23/08/22 11.70 13.30 0.40 0.55 0 43.46
22/08/22 9.40 13.30 14.80 0.80 0 29.12
21/08/22 13.80 9.70 0.00 0.63 2 56.12
20/08/22 17.10 8.60 0.00 0.53 1 52.40
19/08/22 12.60 14.80 7.80 0.64 0 40.85
18/08/22 11.50 9.70 6.00 0.82 0 45.09
17/08/22 14.60 12.20 3.50 0.41 0 55.45
16/08/22 18.20 11.20 0.00 0.42 1 44.51
15/08/22 12.80 9.70 0.80 0.70 0 16.42
14/08/22 13.70 9.70 3.10 0.69 0 12.54
13/08/22 13.60 7.20 0.20 0.65 0 19.25
12/08/22 10.60 11.20 4.60 0.85 0 23.57
11/08/22 14.80 15.80 26.00 0.49 0 20.44
10/08/22 10.70 11.20 14.70 0.70 0 24.31
09/08/22 20.00 11.20 1.20 0.32 0 29.18
08/08/22 15.00 6.10 0.00 0.45 1 47.55
07/08/22 15.40 6.10 0.10 0.53 0 10.01
06/08/22 10.60 8.60 7.60 0.80 0 17.14
05/08/22 10.20 12.20 12.90 0.83 0 17.39
04/08/22 16.40 19.40 25.20 0.44 0 29.15
03/08/22 18.80 13.30 0.30 0.39 0 72.94
02/08/22 14.40 13.30 5.80 0.37 0 62.15
01/08/22 11.40 11.20 0.00 0.48 1 67.17
31/07/22 10.20 17.30 3.60 0.73 0 56.30
30/07/22 12.60 15.80 1.80 0.00 0 73.51
29/07/22 14.80 12.20 0.00 0.46 1 77.87
27/07/22 15.90 8.60 0.10 0.51 0 77.40
26/07/22 12.00 11.20 0.10 0.58 0 88.62
25/07/22 11.60 13.30 1.70 0.61 0 101.69
24/07/22 19.60 11.20 7.40 0.42 0 117.66
23/07/22 19.80 9.70 0.00 0.41 1 116.16
22/07/22 15.00 14.80 0.10 0.55 0 81.43
21/07/22 17.00 12.20 0.00 0.44 3 69.13
20/07/22 12.80 11.20 0.00 0.42 2 60.03
19/07/22 7.60 15.80 0.00 0.60 1 47.99
18/07/22 11.80 7.20 0.60 0.63 0 40.22
17/07/22 9.80 11.20 8.40 0.87 0 27.62
16/07/22 11.50 15.80 44.20 0.47 0 57.46
15/07/22 13.20 11.20 0.00 0.46 1 64.34
14/07/22 14.60 5.00 0.10 0.51 0 51.21
13/07/22 10.20 8.60 0.10 0.70 0 66.76
12/07/22 11.40 13.30 8.60 0.71 0 71.36
11/07/22 13.80 13.30 0.40 0.44 0 79.48
10/07/22 14.40 7.20 0.10 0.43 0 78.71
09/07/22 9.60 7.20 0.20 0.64 0 65.27
08/07/22 14.50 9.70 0.70 0.46 0 66.63
07/07/22 12.20 7.20 0.60 0.63 0 49.37
06/07/22 15.80 6.10 1.00 0.47 0 41.81
04/07/22 12.30 20.90 0.00 0.62 1 55.92
02/07/22 9.00 12.20 1.20 0.67 0 47.36
01/07/22 9.20 11.20 0.00 0.71 1 43.75
30/06/22 13.50 13.30 1.10 0.59 0 43.62
29/06/22 10.30 11.20 10.60 0.60 0 45.44
28/06/22 16.20 11.20 0.00 0.40 2 75.15
27/06/22 15.50 6.10 0.00 0.51 1 18.01
26/06/22 14.50 9.70 4.10 0.70 0 42.74
25/06/22 12.00 11.20 6.30 0.74 0 40.67
24/06/22 12.00 8.60 0.30 0.73 0 37.95
23/06/22 18.50 14.80 0.30 0.50 0 54.39
22/06/22 12.40 12.20 5.50 0.79 0 30.24
21/06/22 11.20 9.70 28.70 0.82 0 34.37
20/06/22 11.00 14.80 2.40 0.79 0 31.85
19/06/22 13.10 12.20 6.00 0.58 0 37.96
18/06/22 19.50 8.60 0.00 0.41 3 44.66
17/06/22 14.40 3.60 0.00 0.59 2 30.61
16/06/22 12.80 6.10 0.00 0.72 1 32.51
15/06/22 11.40 12.20 14.60 0.91 0 34.18
14/06/22 15.80 12.20 17.10 0.50 0 40.48
13/06/22 12.30 8.60 0.00 0.64 1 41.14
12/06/22 12.80 8.60 0.40 0.61 0 41.47
11/06/22 11.20 9.70 0.00 0.70 1 22.40
10/06/22 13.10 8.60 0.60 0.74 0 23.84
09/06/22 9.50 9.70 2.30 0.77 0 9.59
08/06/22 11.40 8.60 0.20 0.70 0 17.11
07/06/22 12.60 9.70 0.60 0.64 0 10.17
06/06/22 10.70 11.20 16.90 0.02 0 20.89
05/06/22 8.20 17.30 15.20 0.78 0 25.86
04/06/22 10.00 20.90 71.20 0.92 0 12.86
03/06/22 10.30 12.20 10.70 0.89 0 24.22
02/06/22 11.40 9.70 1.40 0.61 0 16.58
01/06/22 13.70 7.20 0.00 0.49 1 12.49
31/05/22 10.00 14.80 0.20 0.68 0 18.11
30/05/22 9.90 14.80 11.80 0.75 0 3.00
29/05/22 15.90 11.20 54.30 0.63 0 4.98
28/05/22 12.40 7.20 7.20 0.93 0 21.63
27/05/22 15.30 6.10 4.50 0.72 0 60.63
26/05/22 16.20 6.10 0.20 0.71 0 87.23
25/05/22 13.20 12.20 23.80 0.96 0 110.82
24/05/22 20.50 11.20 4.60 0.45 0 149.59
23/05/22 23.50 6.10 0.00 0.40 5 152.88
22/05/22 21.10 13.30 0.00 0.45 4 130.74
21/05/22 16.60 13.30 0.00 0.54 3 93.22
20/05/22 15.40 17.30 0.00 0.51 2 69.16
19/05/22 15.50 14.80 0.00 0.53 1 62.16
18/05/22 16.70 7.20 0.10 0.52 0 36.72
17/05/22 12.40 8.60 4.50 0.77 0 28.24
16/05/22 13.70 9.70 6.70 0.70 0 47.92
15/05/22 14.80 15.80 5.40 0.76 0 73.96
14/05/22 19.60 13.30 0.70 0.61 0 85.16
13/05/22 19.40 11.20 1.50 0.62 0 80.04
12/05/22 14.60 3.60 0.20 0.85 0 70.48
11/05/22 18.90 8.60 0.20 0.48 0 68.69
10/05/22 18.30 9.70 0.30 0.39 0 49.20
09/05/22 21.60 5.00 0.00 0.40 2 42.86
08/05/22 15.00 6.10 0.00 0.57 1 26.42
07/05/22 15.80 11.20 2.20 0.62 0 42.87
06/05/22 12.90 12.20 1.40 0.68 0 56.10
05/05/22 12.90 9.70 2.70 0.56 0 75.61
04/05/22 15.30 9.70 0.70 0.51 0 69.28
03/05/22 22.60 12.20 3.80 0.42 0 115.74
02/05/22 21.80 7.20 0.10 0.50 0 105.97
01/05/22 20.30 7.20 0.10 0.56 0 87.21
30/04/22 19.10 8.60 0.10 0.50 0 112.59
29/04/22 16.70 9.70 2.80 0.73 0 151.56
28/04/22 27.60 9.70 0.60 0.39 0 195.27
27/04/22 19.20 7.20 0.00 0.70 1 177.70
26/04/22 18.10 14.80 1.50 0.62 0 194.50
25/04/22 23.90 11.20 0.10 0.39 0 193.19
24/04/22 24.60 14.80 0.10 0.42 0 152.76
23/04/22 21.50 17.30 0.00 0.45 4 116.91
22/04/22 17.50 11.20 0.00 0.44 3 107.80
21/04/22 15.90 9.70 0.00 0.55 2 155.66
20/04/22 17.50 7.20 0.00 0.64 1 165.24
19/04/22 18.10 9.70 3.60 0.50 0 177.62
18/04/22 15.70 9.70 0.40 0.62 0 194.79
17/04/22 26.10 9.70 0.70 0.38 0 197.75
16/04/22 30.90 11.20 0.00 0.26 6 173.22
15/04/22 24.80 8.60 0.00 0.51 5 144.54
14/04/22 22.70 3.60 0.00 0.31 4 139.99
13/04/22 24.40 7.20 0.00 0.38 3 127.27
12/04/22 20.30 7.20 0.00 0.53 2 129.06
11/04/22 18.20 8.60 0.00 0.72 1 130.43
10/04/22 28.80 8.60 0.10 0.32 0 129.13
09/04/22 27.00 5.00 0.00 0.36 4 77.18
08/04/22 22.50 0.00 0.00 0.64 3 70.43
08/04/22 24.00 11.20 0.00 0.55 2 84.44
07/04/22 21.10 11.20 0.00 0.67 1 79.94
06/04/22 18.30 8.60 0.20 0.73 0 112.70
05/04/22 23.80 3.60 6.50 0.42 0 137.43
04/04/22 23.20 5.00 0.00 0.40 5 162.06
03/04/22 24.00 5.00 0.00 0.43 4 169.18
02/04/22 20.20 12.20 0.00 0.54 3 179.01
01/04/22 19.30 19.40 0.00 0.51 2 189.57
31/03/22 17.50 17.30 0.00 0.56 1 172.99
30/03/22 19.50 12.20 0.20 0.57 0 157.10
29/03/22 25.70 7.20 0.00 0.47 7 165.33
28/03/22 29.00 6.10 0.00 0.43 6 150.42
27/03/22 30.90 6.10 0.00 0.30 5 121.63
26/03/22 25.90 7.20 0.00 0.44 4 115.92
25/03/22 20.40 7.20 0.00 0.55 3 124.66
24/03/22 22.00 8.60 0.00 0.45 2 143.30
23/03/22 21.10 5.00 0.00 0.55 1 132.11
22/03/22 21.20 6.10 1.20 0.61 0 157.03
21/03/22 31.10 5.00 0.00 0.26 4 123.88
20/03/22 30.10 8.60 0.00 0.50 3 139.40
19/03/22 32.20 6.10 0.00 0.40 2 175.75
18/03/22 24.70 6.10 0.00 0.61 1 178.18
17/03/22 31.00 6.10 0.10 0.43 0 232.33
16/03/22 28.00 7.20 7.60 0.53 0 243.78
15/03/22 33.00 7.20 0.00 0.31 10 271.62
14/03/22 34.00 8.60 0.00 0.19 9 247.16
13/03/22 32.50 5.00 0.00 0.21 8 193.58
12/03/22 29.10 6.10 0.00 0.21 7 169.01
11/03/22 26.40 7.20 0.00 0.31 6 151.12
10/03/22 22.60 8.60 0.00 0.44 5 116.00
09/03/22 21.90 11.20 0.00 0.55 4 88.65
08/03/22 20.70 12.20 0.00 0.64 3 89.70
07/03/22 20.10 13.30 0.00 0.76 2 90.92
06/03/22 20.60 12.20 0.00 0.63 1 92.64
05/03/22 22.90 8.60 1.20 0.63 0 78.65
04/03/22 21.20 7.20 1.50 0.73 0 74.67
03/03/22 32.60 5.00 0.00 0.42 3 101.39
02/03/22 28.80 6.10 0.00 0.51 2 93.52
01/03/22 26.50 6.10 0.00 0.58 1 118.15
28/02/22 26.00 9.70 3.30 0.61 0 168.12
27/02/22 28.20 3.60 1.10 0.37 0 194.92
26/02/22 29.50 6.10 0.00 0.43 6 205.56
25/02/22 25.90 7.20 0.00 0.55 5 184.09
24/02/22 29.70 9.70 0.00 0.39 4 183.99
23/02/22 33.10 7.20 0.00 0.23 3 156.02
22/02/22 25.70 7.20 0.00 0.35 2 112.38
21/02/22 17.80 8.60 0.00 0.62 1 89.89
20/02/22 18.70 6.10 0.70 0.69 0 95.23
19/02/22 25.70 6.10 0.00 0.44 3 138.89
18/02/22 22.20 9.70 0.00 0.57 2 164.66
17/02/22 21.60 7.20 0.00 0.64 1 174.84
16/02/22 23.20 6.10 0.60 0.73 0 198.06
15/02/22 29.40 5.00 0.00 0.52 7 226.84
14/02/22 33.40 7.20 0.00 0.34 6 220.17
13/02/22 33.10 6.10 0.00 0.20 5 170.38
12/02/22 30.00 5.00 0.00 0.21 4 185.46
11/02/22 24.10 11.20 0.00 0.44 3 208.94
10/02/22 24.60 9.70 0.00 0.48 2 234.83
09/02/22 24.20 6.10 0.00 0.62 1 243.47
08/02/22 33.70 6.10 3.20 0.24 0 281.07
07/02/22 32.00 9.70 0.00 0.29 5 289.75
06/02/22 29.40 9.70 0.00 0.27 4 249.65
05/02/22 29.00 11.20 0.00 0.28 3 247.22
04/02/22 23.50 11.20 0.00 0.37 2 214.59
03/02/22 21.30 12.20 0.00 0.54 1 194.28
02/02/22 20.00 12.20 0.30 0.51 0 191.67
01/02/22 22.10 9.70 0.00 0.49 6 229.15
31/01/22 35.50 7.20 0.00 0.32 5 142.53
30/01/22 31.60 6.10 0.00 0.42 4 117.67
29/01/22 25.20 8.60 0.00 0.61 3 113.33
28/01/22 28.10 8.60 0.00 0.59 2 97.39
27/01/22 34.20 9.70 0.00 0.43 1 122.50
26/01/22 32.90 5.00 15.90 0.46 0 119.27
25/01/22 33.10 6.10 0.00 0.47 2 210.68
24/01/22 30.50 7.20 0.00 0.53 1 222.85
23/01/22 21.40 6.10 0.20 0.79 0 233.68
22/01/22 23.70 2.50 6.00 0.76 0 265.45
21/01/22 32.00 8.60 0.60 0.41 0 314.09
20/01/22 30.80 14.80 0.00 0.25 12 311.11
19/01/22 25.70 12.20 0.00 0.43 11 228.94
18/01/22 22.20 13.30 0.00 0.51 10 204.16
17/01/22 25.80 11.20 0.00 0.50 9 224.60
16/01/22 33.50 7.20 0.00 0.33 8 269.44
15/01/22 30.90 6.10 0.00 0.39 7 285.12
14/01/22 24.50 7.20 0.00 0.61 6 282.92
13/01/22 25.50 7.20 0.00 0.53 5 275.84
12/01/22 37.10 7.20 0.00 0.38 4 241.66
11/01/22 36.80 9.70 0.00 0.31 3 184.42
10/01/22 36.20 7.20 0.00 0.23 2 100.46
09/01/22 32.10 5.00 0.00 0.33 1 32.97
08/01/22 23.30 6.10 0.20 0.68 0 36.52
07/01/22 16.40 7.20 6.90 0.97 0 56.62
06/01/22 14.10 6.10 3.20 0.99 0 96.04
06/01/22 19.20 8.60 3.20 0.90 0 136.57
05/01/22 15.60 9.70 6.20 0.89 0 245.60
04/01/22 22.20 9.70 0.00 0.51 14 319.73
03/01/22 24.20 9.70 0.00 0.47 13 373.16
02/01/22 32.90 6.10 0.00 0.35 12 376.97
01/01/22 32.80 5.00 0.00 0.22 11 361.64
31/12/21 38.10 9.70 0.00 0.15 10 356.96
30/12/21 37.30 6.10 0.00 0.21 9 279.73
29/12/21 32.50 11.20 0.00 0.27 8 280.18
28/12/21 25.40 9.70 0.00 0.43 7 241.33
27/12/21 20.80 11.20 0.00 0.54 6 231.88
26/12/21 21.60 14.80 0.00 0.54 5 244.43
25/12/21 24.10 13.30 0.00 0.58 4 232.24
24/12/21 32.70 8.60 0.00 0.26 3 224.71
23/12/21 29.30 8.60 0.00 0.40 2 206.52
22/12/21 26.80 7.20 0.00 0.46 1 257.65
21/12/21 27.40 7.20 0.20 0.26 0 265.16
20/12/21 24.50 7.20 0.00 0.46 2 248.91
19/12/21 21.50 11.20 0.00 0.53 1 224.06
18/12/21 30.20 7.20 0.10 0.26 0 217.24
17/12/21 36.40 9.70 0.00 0.20 3 181.98
16/12/21 30.10 6.10 0.00 0.31 2 123.35
15/12/21 25.10 6.10 0.00 0.47 1 108.83
14/12/21 28.60 7.20 1.20 0.41 0 118.40
13/12/21 25.20 5.00 0.70 0.34 0 123.15
12/12/21 30.50 1.10 0.00 0.23 5 125.64
11/12/21 29.90 6.10 0.00 0.29 4 160.47
10/12/21 21.10 8.60 0.00 0.48 3 153.73
09/12/21 16.90 9.70 0.00 0.61 2 151.14
08/12/21 16.40 12.20 0.00 0.53 1 160.32
07/12/21 19.10 8.60 0.20 0.51 0 166.00
06/12/21 27.40 8.60 0.20 0.31 0 209.54
05/12/21 25.90 7.20 0.00 0.36 11 195.35
04/12/21 21.20 8.60 0.00 0.52 10 168.85
03/12/21 25.10 7.20 0.00 0.46 9 257.50
02/12/21 28.20 7.20 0.00 0.49 8 277.84
01/12/21 32.50 8.60 0.00 0.26 7 269.12
30/11/21 32.00 2.50 0.00 0.24 6 222.71
29/11/21 28.30 0.00 0.00 0.32 5 203.68
29/11/21 29.40 17.30 0.00 0.22 4 208.01
28/11/21 26.40 8.60 0.00 0.22 3 86.08
27/11/21 21.20 8.60 0.00 0.53 2 39.02
26/11/21 15.90 12.20 0.00 0.62 1 48.32
25/11/21 20.00 12.20 2.90 0.67 0 49.46
24/11/21 21.70 9.70 0.80 0.79 0 41.15
23/11/21 21.50 6.10 12.70 0.69 0 99.05
22/11/21 25.10 6.10 2.00 0.38 0 159.51
21/11/21 19.40 14.80 0.00 0.54 1 159.58
20/11/21 14.30 9.70 0.10 0.70 0 137.45
19/11/21 13.90 6.10 6.30 0.80 0 142.42
18/11/21 28.50 11.20 0.10 0.25 0 127.98
17/11/21 27.20 9.70 0.00 0.26 1 63.76
16/11/21 17.70 6.10 0.10 0.55 0 11.09
15/11/21 13.80 8.60 1.70 0.78 0 34.89
14/11/21 13.90 12.20 1.00 0.66 0 68.02
13/11/21 16.00 15.80 8.50 0.56 0 77.13
12/11/21 12.50 8.60 1.20 0.73 0 84.22
11/11/21 10.20 18.40 16.40 0.74 0 84.83
10/11/21 16.60 18.40 0.00 0.54 1 81.86
09/11/21 22.20 8.60 0.30 0.50 0 73.89
08/11/21 19.90 6.10 0.00 0.51 2 66.81
07/11/21 19.50 6.10 0.00 0.56 1 51.95
06/11/21 26.10 6.10 1.80 0.54 0 87.25
05/11/21 28.40 7.20 1.20 0.24 0 139.48
04/11/21 22.60 8.60 0.00 0.47 1 132.55
03/11/21 20.90 9.70 1.00 0.71 0 118.52
02/11/21 30.30 7.20 1.10 0.25 0 116.00
01/11/21 26.80 7.20 0.00 0.23 3 95.74
31/10/21 24.30 9.70 0.00 0.31 2 97.74
30/10/21 16.80 7.20 0.00 0.52 1 82.47
29/10/21 16.20 7.20 0.10 0.55 0 98.26
28/10/21 19.70 13.30 12.40 0.67 0 110.26
27/10/21 27.20 8.60 3.90 0.19 0 156.28
26/10/21 27.20 7.20 0.00 0.19 4 152.60
25/10/21 22.30 7.20 0.00 0.32 3 139.68
24/10/21 17.40 9.70 0.00 0.53 2 137.25
23/10/21 17.30 9.70 0.00 0.55 1 136.57
22/10/21 23.70 8.60 0.10 0.45 0 140.95
21/10/21 21.30 8.60 0.00 0.60 1 122.14
20/10/21 21.10 8.60 0.10 0.30 0 113.79
19/10/21 19.70 9.70 0.40 0.44 0 73.70
18/10/21 22.50 7.20 0.00 0.53 3 61.86
17/10/21 21.60 8.60 0.00 0.49 2 42.46
16/10/21 16.20 6.10 0.00 0.65 1 32.15
15/10/21 15.20 9.70 0.10 0.70 0 34.85
14/10/21 13.20 9.70 19.10 0.72 0 52.60
13/10/21 13.20 9.70 5.60 0.74 0 81.97
12/10/21 20.20 7.20 3.80 0.36 0 103.86
11/10/21 13.60 9.70 0.00 0.56 1 144.51
10/10/21 14.40 8.60 0.10 0.59 0 143.81
09/10/21 21.50 7.20 0.00 0.32 5 123.70

 

CumulusUtils Version 3.0.1 - generated at 04/10/2022 18:01 - © Hans Rottier
Science background here. - NOTE: Behavioural testing still under way!
Prediction courtesy of https://www.yourweather.co.uk/